sensor_id;sensor_type;location;lat;lon;timestamp;pressure;altitude;pressure_sealevel;temperature;humidity
141;BME280;65;48.778;9.160;2023-04-08T00:02:43;98780.88;;;7.84;100.00
141;BME280;65;48.778;9.160;2023-04-08T00:05:47;98786.03;;;7.87;100.00
141;BME280;65;48.778;9.160;2023-04-08T00:08:33;98781.75;;;7.84;100.00
141;BME280;65;48.778;9.160;2023-04-08T00:11:18;98788.72;;;7.85;100.00
141;BME280;65;48.778;9.160;2023-04-08T00:14:04;98786.03;;;7.87;100.00
141;BME280;65;48.778;9.160;2023-04-08T00:16:50;98791.28;;;7.87;100.00
141;BME280;65;48.778;9.160;2023-04-08T00:19:36;98792.22;;;7.86;100.00
141;BME280;65;48.778;9.160;2023-04-08T00:22:22;98794.06;;;7.84;100.00
141;BME280;65;48.778;9.160;2023-04-08T00:25:07;98790.81;;;7.77;100.00
141;BME280;65;48.778;9.160;2023-04-08T00:27:54;98779.44;;;7.77;100.00
141;BME280;65;48.778;9.160;2023-04-08T00:30:39;98789.31;;;7.72;100.00
141;BME280;65;48.778;9.160;2023-04-08T00:33:50;98782.41;;;7.69;100.00
141;BME280;65;48.778;9.160;2023-04-08T00:36:36;98787.13;;;7.61;100.00
141;BME280;65;48.778;9.160;2023-04-08T00:39:22;98786.53;;;7.54;100.00
141;BME280;65;48.778;9.160;2023-04-08T00:42:07;98790.03;;;7.55;100.00
141;BME280;65;48.778;9.160;2023-04-08T00:44:54;98796.06;;;7.57;100.00
141;BME280;65;48.778;9.160;2023-04-08T00:47:39;98806.53;;;7.58;100.00
141;BME280;65;48.778;9.160;2023-04-08T00:50:25;98801.94;;;7.64;100.00
141;BME280;65;48.778;9.160;2023-04-08T00:53:14;98797.59;;;7.63;100.00
141;BME280;65;48.778;9.160;2023-04-08T00:56:01;98807.00;;;7.68;100.00
141;BME280;65;48.778;9.160;2023-04-08T00:58:47;98810.41;;;7.70;100.00
141;BME280;65;48.778;9.160;2023-04-08T01:01:42;98811.16;;;7.74;100.00
141;BME280;65;48.778;9.160;2023-04-08T01:07:36;98802.41;;;7.73;100.00
141;BME280;65;48.778;9.160;2023-04-08T01:10:27;98807.59;;;7.75;100.00
141;BME280;65;48.778;9.160;2023-04-08T01:13:16;98804.78;;;7.79;100.00
141;BME280;65;48.778;9.160;2023-04-08T01:16:02;98798.72;;;7.77;100.00
141;BME280;65;48.778;9.160;2023-04-08T01:18:49;98804.91;;;7.76;100.00
141;BME280;65;48.778;9.160;2023-04-08T01:21:36;98808.50;;;7.74;100.00
141;BME280;65;48.778;9.160;2023-04-08T01:24:27;98802.41;;;7.73;100.00
141;BME280;65;48.778;9.160;2023-04-08T01:27:17;98798.38;;;7.65;100.00
141;BME280;65;48.778;9.160;2023-04-08T01:30:05;98807.19;;;7.64;100.00
141;BME280;65;48.778;9.160;2023-04-08T01:32:53;98808.31;;;7.58;100.00
141;BME280;65;48.778;9.160;2023-04-08T01:35:40;98805.72;;;7.56;100.00
141;BME280;65;48.778;9.160;2023-04-08T01:38:28;98806.66;;;7.55;100.00
141;BME280;65;48.778;9.160;2023-04-08T01:41:16;98803.31;;;7.50;100.00
141;BME280;65;48.778;9.160;2023-04-08T01:44:03;98794.66;;;7.48;100.00
141;BME280;65;48.778;9.160;2023-04-08T01:46:50;98800.16;;;7.42;100.00
141;BME280;65;48.778;9.160;2023-04-08T01:49:38;98798.91;;;7.51;100.00
141;BME280;65;48.778;9.160;2023-04-08T01:52:25;98798.88;;;7.52;100.00
141;BME280;65;48.778;9.160;2023-04-08T01:55:13;98799.91;;;7.48;100.00
141;BME280;65;48.778;9.160;2023-04-08T01:58:00;98798.91;;;7.73;100.00
141;BME280;65;48.778;9.160;2023-04-08T02:00:47;98800.16;;;7.64;100.00
141;BME280;65;48.778;9.160;2023-04-08T02:03:34;98797.16;;;7.51;100.00
141;BME280;65;48.778;9.160;2023-04-08T02:06:20;98805.47;;;7.41;100.00
141;BME280;65;48.778;9.160;2023-04-08T02:09:06;98805.72;;;7.35;100.00
141;BME280;65;48.778;9.160;2023-04-08T02:11:52;98806.78;;;7.30;100.00
141;BME280;65;48.778;9.160;2023-04-08T02:14:38;98812.03;;;7.30;100.00
141;BME280;65;48.778;9.160;2023-04-08T02:20:27;98802.78;;;7.42;100.00
141;BME280;65;48.778;9.160;2023-04-08T02:23:20;98800.34;;;7.38;100.00
141;BME280;65;48.778;9.160;2023-04-08T02:26:11;98804.50;;;7.43;100.00
141;BME280;65;48.778;9.160;2023-04-08T02:28:59;98809.69;;;7.45;100.00
141;BME280;65;48.778;9.160;2023-04-08T02:31:48;98806.28;;;7.43;100.00
141;BME280;65;48.778;9.160;2023-04-08T02:34:36;98811.78;;;7.37;100.00
141;BME280;65;48.778;9.160;2023-04-08T02:37:23;98810.88;;;7.38;100.00
141;BME280;65;48.778;9.160;2023-04-08T02:43:10;98806.53;;;7.37;100.00
141;BME280;65;48.778;9.160;2023-04-08T02:45:57;98799.50;;;7.37;100.00
141;BME280;65;48.778;9.160;2023-04-08T02:48:48;98816.25;;;7.35;100.00
141;BME280;65;48.778;9.160;2023-04-08T02:51:34;98806.78;;;7.30;100.00
141;BME280;65;48.778;9.160;2023-04-08T02:54:19;98809.41;;;7.30;100.00
141;BME280;65;48.778;9.160;2023-04-08T02:57:08;98811.16;;;7.30;100.00
141;BME280;65;48.778;9.160;2023-04-08T02:59:54;98810.06;;;7.36;100.00
141;BME280;65;48.778;9.160;2023-04-08T03:02:39;98806.66;;;7.34;100.00
141;BME280;65;48.778;9.160;2023-04-08T03:05:25;98809.22;;;7.35;100.00
141;BME280;65;48.778;9.160;2023-04-08T03:08:11;98802.38;;;7.31;100.00
141;BME280;65;48.778;9.160;2023-04-08T03:10:57;98808.47;;;7.32;100.00
141;BME280;65;48.778;9.160;2023-04-08T03:13:42;98801.63;;;7.27;100.00
141;BME280;65;48.778;9.160;2023-04-08T03:16:28;98810.44;;;7.26;100.00
141;BME280;65;48.778;9.160;2023-04-08T03:19:14;98805.31;;;7.23;100.00
141;BME280;65;48.778;9.160;2023-04-08T03:22:00;98808.84;;;7.22;100.00
141;BME280;65;48.778;9.160;2023-04-08T03:24:45;98802.75;;;7.22;100.00
141;BME280;65;48.778;9.160;2023-04-08T03:27:31;98810.00;;;7.15;100.00
141;BME280;65;48.778;9.160;2023-04-08T03:30:17;98805.66;;;7.14;100.00
141;BME280;65;48.778;9.160;2023-04-08T03:33:03;98806.66;;;7.12;100.00
141;BME280;65;48.778;9.160;2023-04-08T03:35:53;98811.97;;;7.10;100.00
141;BME280;65;48.778;9.160;2023-04-08T03:38:39;98813.91;;;7.05;100.00
141;BME280;65;48.778;9.160;2023-04-08T03:41:25;98816.44;;;7.08;100.00
141;BME280;65;48.778;9.160;2023-04-08T03:44:11;98818.13;;;7.09;100.00
141;BME280;65;48.778;9.160;2023-04-08T03:46:56;98811.16;;;7.08;100.00
141;BME280;65;48.778;9.160;2023-04-08T03:49:42;98812.88;;;7.09;100.00
141;BME280;65;48.778;9.160;2023-04-08T03:52:28;98821.38;;;7.16;100.00
141;BME280;65;48.778;9.160;2023-04-08T03:55:14;98820.53;;;7.15;100.00
141;BME280;65;48.778;9.160;2023-04-08T03:57:59;98813.50;;;7.16;100.00
141;BME280;65;48.778;9.160;2023-04-08T04:00:45;98818.81;;;7.14;100.00
141;BME280;65;48.778;9.160;2023-04-08T04:03:31;98817.97;;;7.14;100.00
141;BME280;65;48.778;9.160;2023-04-08T04:06:16;98815.28;;;7.15;100.00
141;BME280;65;48.778;9.160;2023-04-08T04:09:02;98820.41;;;7.18;100.00
141;BME280;65;48.778;9.160;2023-04-08T04:11:48;98816.06;;;7.17;100.00
141;BME280;65;48.778;9.160;2023-04-08T04:14:46;98815.16;;;7.18;100.00
141;BME280;65;48.778;9.160;2023-04-08T04:17:31;98821.19;;;7.20;100.00
141;BME280;65;48.778;9.160;2023-04-08T04:20:17;98816.97;;;7.16;100.00
141;BME280;65;48.778;9.160;2023-04-08T04:23:03;98813.56;;;7.14;100.00
141;BME280;65;48.778;9.160;2023-04-08T04:25:49;98818.88;;;7.13;100.00
141;BME280;65;48.778;9.160;2023-04-08T04:28:35;98811.97;;;7.10;100.00
141;BME280;65;48.778;9.160;2023-04-08T04:31:23;98817.41;;;7.06;100.00
141;BME280;65;48.778;9.160;2023-04-08T04:34:12;98818.75;;;6.94;100.00
141;BME280;65;48.778;9.160;2023-04-08T04:36:57;98827.84;;;6.84;100.00
141;BME280;65;48.778;9.160;2023-04-08T04:39:43;98829.22;;;6.71;100.00
141;BME280;65;48.778;9.160;2023-04-08T04:42:29;98832.22;;;6.61;100.00
141;BME280;65;48.778;9.160;2023-04-08T04:45:15;98838.50;;;6.57;100.00
141;BME280;65;48.778;9.160;2023-04-08T04:48:00;98835.97;;;6.54;100.00
141;BME280;65;48.778;9.160;2023-04-08T04:50:58;98833.50;;;6.50;100.00
141;BME280;65;48.778;9.160;2023-04-08T04:53:45;98835.28;;;6.49;100.00
141;BME280;65;48.778;9.160;2023-04-08T04:56:31;98831.81;;;6.49;100.00
141;BME280;65;48.778;9.160;2023-04-08T04:59:16;98834.38;;;6.50;100.00
141;BME280;65;48.778;9.160;2023-04-08T05:02:02;98840.66;;;6.46;100.00
141;BME280;65;48.778;9.160;2023-04-08T05:04:48;98842.59;;;6.41;100.00
141;BME280;65;48.778;9.160;2023-04-08T05:07:37;98848.69;;;6.42;100.00
141;BME280;65;48.778;9.160;2023-04-08T05:10:23;98847.03;;;6.39;100.00
141;BME280;65;48.778;9.160;2023-04-08T05:13:09;98853.13;;;6.40;100.00
141;BME280;65;48.778;9.160;2023-04-08T05:15:55;98855.03;;;6.34;100.00
141;BME280;65;48.778;9.160;2023-04-08T05:18:41;98857.84;;;6.30;100.00
141;BME280;65;48.778;9.160;2023-04-08T05:21:26;98860.41;;;6.31;100.00
141;BME280;65;48.778;9.160;2023-04-08T05:24:12;98866.50;;;6.32;100.00
141;BME280;65;48.778;9.160;2023-04-08T05:26:58;98864.78;;;6.31;100.00
141;BME280;65;48.778;9.160;2023-04-08T05:29:43;98860.47;;;6.30;100.00
141;BME280;65;48.778;9.160;2023-04-08T05:32:29;98861.25;;;6.32;100.00
141;BME280;65;48.778;9.160;2023-04-08T05:35:15;98859.38;;;6.35;100.00
141;BME280;65;48.778;9.160;2023-04-08T05:38:01;98869.63;;;6.43;100.00
141;BME280;65;48.778;9.160;2023-04-08T05:40:46;98874.44;;;6.55;100.00
141;BME280;65;48.778;9.160;2023-04-08T05:43:32;98885.41;;;6.66;100.00
141;BME280;65;48.778;9.160;2023-04-08T05:46:18;98881.38;;;6.81;100.00
141;BME280;65;48.778;9.160;2023-04-08T05:49:04;98887.78;;;6.97;100.00
141;BME280;65;48.778;9.160;2023-04-08T05:51:50;98887.28;;;7.11;100.00
141;BME280;65;48.778;9.160;2023-04-08T05:54:36;98887.91;;;7.18;100.00
141;BME280;65;48.778;9.160;2023-04-08T05:57:21;98894.31;;;7.33;100.00
141;BME280;65;48.778;9.160;2023-04-08T06:00:08;98895.91;;;7.37;100.00
141;BME280;65;48.778;9.160;2023-04-08T06:02:54;98897.63;;;7.38;100.00
141;BME280;65;48.778;9.160;2023-04-08T06:05:41;98904.53;;;7.40;100.00
141;BME280;65;48.778;9.160;2023-04-08T06:08:26;98893.72;;;7.48;100.00
141;BME280;65;48.778;9.160;2023-04-08T06:11:12;98904.03;;;7.54;100.00
141;BME280;65;48.778;9.160;2023-04-08T06:13:58;98904.84;;;7.56;100.00
141;BME280;65;48.778;9.160;2023-04-08T06:16:44;98896.69;;;7.62;100.00
141;BME280;65;48.778;9.160;2023-04-08T06:19:29;98903.16;;;7.75;100.00
141;BME280;65;48.778;9.160;2023-04-08T06:22:15;98910.34;;;7.72;100.00
141;BME280;65;48.778;9.160;2023-04-08T06:25:01;98907.81;;;7.69;100.00
141;BME280;65;48.778;9.160;2023-04-08T06:27:47;98907.75;;;7.70;100.00
141;BME280;65;48.778;9.160;2023-04-08T06:30:33;98913.03;;;7.70;100.00
141;BME280;65;48.778;9.160;2023-04-08T06:33:18;98912.84;;;7.75;100.00
141;BME280;65;48.778;9.160;2023-04-08T06:36:05;98909.53;;;7.91;100.00
141;BME280;65;48.778;9.160;2023-04-08T06:38:51;98917.84;;;7.81;100.00
141;BME280;65;48.778;9.160;2023-04-08T06:41:37;98913.47;;;8.02;100.00
141;BME280;65;48.778;9.160;2023-04-08T06:44:23;98921.75;;;8.14;100.00
141;BME280;65;48.778;9.160;2023-04-08T06:47:08;98914.06;;;8.10;100.00
141;BME280;65;48.778;9.160;2023-04-08T06:49:54;98926.44;;;8.28;100.00
141;BME280;65;48.778;9.160;2023-04-08T06:52:40;98918.28;;;8.14;100.00
141;BME280;65;48.778;9.160;2023-04-08T06:55:26;98924.72;;;8.27;100.00
141;BME280;65;48.778;9.160;2023-04-08T06:58:13;98925.91;;;8.20;100.00
141;BME280;65;48.778;9.160;2023-04-08T07:00:59;98935.84;;;8.13;100.00
141;BME280;65;48.778;9.160;2023-04-08T07:03:45;98935.16;;;8.08;100.00
141;BME280;65;48.778;9.160;2023-04-08T07:06:31;98936.25;;;8.03;100.00
141;BME280;65;48.778;9.160;2023-04-08T07:09:17;98929.41;;;8.20;100.00
141;BME280;65;48.778;9.160;2023-04-08T07:12:03;98932.50;;;8.30;100.00
141;BME280;65;48.778;9.160;2023-04-08T07:14:51;98937.09;;;8.47;100.00
141;BME280;65;48.778;9.160;2023-04-08T07:17:37;98938.19;;;8.62;100.00
141;BME280;65;48.778;9.160;2023-04-08T07:20:24;98946.91;;;8.84;100.00
141;BME280;65;48.778;9.160;2023-04-08T07:23:10;98949.63;;;9.01;100.00
141;BME280;65;48.778;9.160;2023-04-08T07:26:01;98942.00;;;8.95;100.00
141;BME280;65;48.778;9.160;2023-04-08T07:28:46;98950.56;;;9.00;100.00
141;BME280;65;48.778;9.160;2023-04-08T07:31:32;98948.59;;;9.05;100.00
141;BME280;65;48.778;9.160;2023-04-08T07:34:18;98951.06;;;9.29;100.00
141;BME280;65;48.778;9.160;2023-04-08T07:37:04;98948.28;;;9.50;99.66
141;BME280;65;48.778;9.160;2023-04-08T07:39:50;98953.44;;;9.14;100.00
141;BME280;65;48.778;9.160;2023-04-08T07:42:35;98950.63;;;9.38;98.94
141;BME280;65;48.778;9.160;2023-04-08T07:45:21;98953.63;;;9.87;96.55
141;BME280;65;48.778;9.160;2023-04-08T07:48:07;98960.69;;;10.22;96.03
141;BME280;65;48.778;9.160;2023-04-08T07:50:53;98966.50;;;10.48;93.68
141;BME280;65;48.778;9.160;2023-04-08T07:53:38;98956.53;;;10.53;89.72
141;BME280;65;48.778;9.160;2023-04-08T07:56:27;98955.63;;;10.54;90.93
141;BME280;65;48.778;9.160;2023-04-08T07:59:13;98960.75;;;10.57;91.79
141;BME280;65;48.778;9.160;2023-04-08T08:01:58;98957.00;;;10.78;90.53
141;BME280;65;48.778;9.160;2023-04-08T08:04:44;98954.06;;;10.67;87.10
141;BME280;65;48.778;9.160;2023-04-08T08:07:30;98959.97;;;10.72;87.87
141;BME280;65;48.778;9.160;2023-04-08T08:10:16;98963.22;;;10.77;86.64
141;BME280;65;48.778;9.160;2023-04-08T08:13:01;98965.16;;;10.91;85.87
141;BME280;65;48.778;9.160;2023-04-08T08:15:51;98959.72;;;10.59;90.15
141;BME280;65;48.778;9.160;2023-04-08T08:18:37;98962.50;;;10.91;87.76
141;BME280;65;48.778;9.160;2023-04-08T08:21:24;98967.34;;;11.00;83.58
141;BME280;65;48.778;9.160;2023-04-08T08:24:11;98974.16;;;10.87;86.57
141;BME280;65;48.778;9.160;2023-04-08T08:26:56;98977.06;;;10.82;85.89
141;BME280;65;48.778;9.160;2023-04-08T08:29:42;98974.13;;;10.54;88.12
141;BME280;65;48.778;9.160;2023-04-08T08:32:28;98977.06;;;10.82;84.00
141;BME280;65;48.778;9.160;2023-04-08T08:35:14;98973.63;;;10.80;84.64
141;BME280;65;48.778;9.160;2023-04-08T08:38:00;98980.72;;;11.30;82.31
141;BME280;65;48.778;9.160;2023-04-08T08:40:46;98984.09;;;11.49;87.48
141;BME280;65;48.778;9.160;2023-04-08T08:43:31;98977.50;;;11.89;81.43
141;BME280;65;48.778;9.160;2023-04-08T08:46:18;98984.59;;;12.20;81.28
141;BME280;65;48.778;9.160;2023-04-08T08:49:03;98979.94;;;13.14;75.05
141;BME280;65;48.778;9.160;2023-04-08T08:51:51;98981.91;;;13.40;68.42
141;BME280;65;48.778;9.160;2023-04-08T08:54:37;98977.28;;;13.14;69.34
141;BME280;65;48.778;9.160;2023-04-08T08:57:23;98974.78;;;13.41;71.09
141;BME280;65;48.778;9.160;2023-04-08T09:00:08;98984.00;;;14.32;72.38
141;BME280;65;48.778;9.160;2023-04-08T09:02:54;98987.91;;;14.80;66.00
141;BME280;65;48.778;9.160;2023-04-08T09:05:51;98987.38;;;14.75;60.10
141;BME280;65;48.778;9.160;2023-04-08T09:08:37;98981.66;;;14.00;67.26
141;BME280;65;48.778;9.160;2023-04-08T09:11:23;98981.34;;;14.32;62.78
141;BME280;65;48.778;9.160;2023-04-08T09:14:24;98987.31;;;13.09;70.87
141;BME280;65;48.778;9.160;2023-04-08T09:17:10;98985.88;;;13.61;66.79
141;BME280;65;48.778;9.160;2023-04-08T09:20:09;98989.25;;;13.92;63.36
141;BME280;65;48.778;9.160;2023-04-08T09:23:00;98993.19;;;13.58;65.90
141;BME280;65;48.778;9.160;2023-04-08T09:25:46;98995.00;;;13.43;66.44
141;BME280;65;48.778;9.160;2023-04-08T09:28:32;98989.28;;;13.64;63.48
141;BME280;65;48.778;9.160;2023-04-08T09:34:13;98989.69;;;12.99;65.11
141;BME280;65;48.778;9.160;2023-04-08T09:37:03;99003.22;;;12.94;67.85
141;BME280;65;48.778;9.160;2023-04-08T09:39:49;98995.00;;;12.99;68.45
141;BME280;65;48.778;9.160;2023-04-08T09:42:39;98990.16;;;12.16;65.09
141;BME280;65;48.778;9.160;2023-04-08T09:45:25;98997.47;;;13.02;62.33
141;BME280;65;48.778;9.160;2023-04-08T09:48:16;98987.78;;;13.59;61.10
141;BME280;65;48.778;9.160;2023-04-08T09:51:03;98989.03;;;14.09;59.28
141;BME280;65;48.778;9.160;2023-04-08T09:53:58;98985.47;;;14.77;56.14
141;BME280;65;48.778;9.160;2023-04-08T09:57:00;98987.69;;;14.70;62.63
141;BME280;65;48.778;9.160;2023-04-08T10:00:08;98987.34;;;15.27;55.40
141;BME280;65;48.778;9.160;2023-04-08T10:05:43;98997.59;;;14.81;51.23
141;BME280;65;48.778;9.160;2023-04-08T10:08:31;98997.03;;;13.95;56.13
141;BME280;65;48.778;9.160;2023-04-08T10:11:17;98994.00;;;13.73;57.75
141;BME280;65;48.778;9.160;2023-04-08T10:14:03;98979.13;;;14.52;55.41
141;BME280;65;48.778;9.160;2023-04-08T10:16:48;98991.19;;;14.71;55.33
141;BME280;65;48.778;9.160;2023-04-08T10:19:36;98989.31;;;14.85;49.08
141;BME280;65;48.778;9.160;2023-04-08T10:30:55;98985.66;;;13.22;51.06
141;BME280;65;48.778;9.160;2023-04-08T10:33:41;98981.72;;;12.99;57.66
141;BME280;65;48.778;9.160;2023-04-08T10:36:27;98986.25;;;12.83;57.06
141;BME280;65;48.778;9.160;2023-04-08T10:39:14;98985.03;;;12.88;54.90
141;BME280;65;48.778;9.160;2023-04-08T10:42:02;98988.22;;;12.79;57.50
141;BME280;65;48.778;9.160;2023-04-08T10:44:48;98992.25;;;12.71;56.32
141;BME280;65;48.778;9.160;2023-04-08T10:47:35;98999.72;;;12.18;58.67
141;BME280;65;48.778;9.160;2023-04-08T10:50:21;98993.13;;;11.94;58.82
141;BME280;65;48.778;9.160;2023-04-08T10:53:09;98997.59;;;11.78;60.52
141;BME280;65;48.778;9.160;2023-04-08T10:56:12;98996.47;;;11.82;57.26
141;BME280;65;48.778;9.160;2023-04-08T10:59:00;98997.16;;;11.52;61.26
141;BME280;65;48.778;9.160;2023-04-08T11:01:46;99004.22;;;11.36;60.67
141;BME280;65;48.778;9.160;2023-04-08T11:04:32;98998.47;;;11.28;60.78
141;BME280;65;48.778;9.160;2023-04-08T11:07:19;98996.88;;;11.41;61.17
141;BME280;65;48.778;9.160;2023-04-08T11:10:06;99000.63;;;11.37;61.21
141;BME280;65;48.778;9.160;2023-04-08T11:12:55;98996.44;;;11.33;59.16
141;BME280;65;48.778;9.160;2023-04-08T11:15:41;98999.69;;;11.38;58.10
141;BME280;65;48.778;9.160;2023-04-08T11:18:27;99004.38;;;11.66;58.59
141;BME280;65;48.778;9.160;2023-04-08T11:21:13;98999.50;;;11.58;59.50
141;BME280;65;48.778;9.160;2023-04-08T11:23:59;99003.78;;;11.61;58.94
141;BME280;65;48.778;9.160;2023-04-08T11:26:45;98995.03;;;11.92;56.79
141;BME280;65;48.778;9.160;2023-04-08T11:29:32;98991.69;;;12.04;58.17
141;BME280;65;48.778;9.160;2023-04-08T11:32:18;98987.59;;;12.14;57.45
141;BME280;65;48.778;9.160;2023-04-08T11:35:04;98989.44;;;12.44;54.70
141;BME280;65;48.778;9.160;2023-04-08T11:37:51;98984.47;;;12.38;56.80
141;BME280;65;48.778;9.160;2023-04-08T11:40:37;98988.59;;;11.96;56.71
141;BME280;65;48.778;9.160;2023-04-08T11:43:23;99001.94;;;11.94;56.56
141;BME280;65;48.778;9.160;2023-04-08T11:46:10;98992.53;;;11.89;57.14
141;BME280;65;48.778;9.160;2023-04-08T11:49:08;98987.91;;;11.77;57.25
141;BME280;65;48.778;9.160;2023-04-08T11:51:56;98988.94;;;11.90;55.69
141;BME280;65;48.778;9.160;2023-04-08T11:54:43;98991.84;;;11.85;55.93
141;BME280;65;48.778;9.160;2023-04-08T11:57:29;98986.31;;;11.90;54.74
141;BME280;65;48.778;9.160;2023-04-08T12:00:14;98985.84;;;11.66;58.50
141;BME280;65;48.778;9.160;2023-04-08T12:03:00;98987.41;;;11.86;57.93
141;BME280;65;48.778;9.160;2023-04-08T12:05:46;98988.84;;;11.43;61.64
141;BME280;65;48.778;9.160;2023-04-08T12:08:32;98994.38;;;11.71;56.14
141;BME280;65;48.778;9.160;2023-04-08T12:11:18;98994.38;;;11.71;61.76
141;BME280;65;48.778;9.160;2023-04-08T12:14:04;98997.63;;;11.60;60.60
141;BME280;65;48.778;9.160;2023-04-08T12:16:50;98995.41;;;11.68;61.41
141;BME280;65;48.778;9.160;2023-04-08T12:19:37;99000.28;;;11.60;60.73
141;BME280;65;48.778;9.160;2023-04-08T12:22:22;98996.69;;;11.61;60.13
141;BME280;65;48.778;9.160;2023-04-08T12:25:08;99000.25;;;11.27;61.67
141;BME280;65;48.778;9.160;2023-04-08T12:27:54;98998.88;;;11.53;58.37
141;BME280;65;48.778;9.160;2023-04-08T12:30:40;98995.78;;;11.78;61.33
141;BME280;65;48.778;9.160;2023-04-08T12:33:26;99003.13;;;12.04;59.03
141;BME280;65;48.778;9.160;2023-04-08T12:36:12;98991.25;;;12.27;57.67
141;BME280;65;48.778;9.160;2023-04-08T12:38:57;98990.31;;;12.13;56.59
141;BME280;65;48.778;9.160;2023-04-08T12:41:43;98993.41;;;12.21;55.93
141;BME280;65;48.778;9.160;2023-04-08T12:44:29;98991.41;;;12.09;59.55
141;BME280;65;48.778;9.160;2023-04-08T12:47:15;99004.59;;;11.94;57.37
141;BME280;65;48.778;9.160;2023-04-08T12:50:01;99002.63;;;11.98;57.75
141;BME280;65;48.778;9.160;2023-04-08T12:52:47;98997.31;;;11.98;57.81
141;BME280;65;48.778;9.160;2023-04-08T12:55:33;99002.59;;;11.66;61.08
141;BME280;65;48.778;9.160;2023-04-08T12:58:49;98996.56;;;11.80;59.82
141;BME280;65;48.778;9.160;2023-04-08T13:01:36;98986.56;;;12.01;57.24
141;BME280;65;48.778;9.160;2023-04-08T13:04:21;98999.28;;;11.94;57.62
141;BME280;65;48.778;9.160;2023-04-08T13:07:07;98994.25;;;11.90;59.85
141;BME280;65;48.778;9.160;2023-04-08T13:09:53;98992.97;;;11.48;59.48
141;BME280;65;48.778;9.160;2023-04-08T13:12:39;98990.38;;;11.64;61.02
141;BME280;65;48.778;9.160;2023-04-08T13:15:24;98994.31;;;11.39;60.81
141;BME280;65;48.778;9.160;2023-04-08T13:18:10;98998.19;;;11.17;61.16
141;BME280;65;48.778;9.160;2023-04-08T13:20:56;98998.31;;;11.31;63.25
141;BME280;65;48.778;9.160;2023-04-08T13:23:43;98990.91;;;11.37;62.40
141;BME280;65;48.778;9.160;2023-04-08T13:26:28;98992.38;;;11.10;61.90
141;BME280;65;48.778;9.160;2023-04-08T13:29:14;98998.44;;;11.45;63.57
141;BME280;65;48.778;9.160;2023-04-08T13:32:00;98995.25;;;11.71;59.90
141;BME280;65;48.778;9.160;2023-04-08T13:34:46;98996.84;;;11.58;61.07
141;BME280;65;48.778;9.160;2023-04-08T13:37:31;99003.53;;;11.65;60.48
141;BME280;65;48.778;9.160;2023-04-08T13:40:17;99008.47;;;11.71;60.56
141;BME280;65;48.778;9.160;2023-04-08T13:43:03;99000.50;;;11.89;59.66
141;BME280;65;48.778;9.160;2023-04-08T13:45:49;98996.81;;;11.91;57.81
141;BME280;65;48.778;9.160;2023-04-08T13:48:34;98991.84;;;12.01;58.33
141;BME280;65;48.778;9.160;2023-04-08T13:51:20;98991.69;;;11.88;62.87
141;BME280;65;48.778;9.160;2023-04-08T13:54:06;98994.59;;;11.84;61.61
141;BME280;65;48.778;9.160;2023-04-08T13:56:51;98991.66;;;11.72;60.65
141;BME280;65;48.778;9.160;2023-04-08T13:59:37;98995.63;;;11.81;60.82
141;BME280;65;48.778;9.160;2023-04-08T14:02:23;98999.88;;;11.84;61.79
141;BME280;65;48.778;9.160;2023-04-08T14:05:09;98988.50;;;12.13;59.94
141;BME280;65;48.778;9.160;2023-04-08T14:07:54;98987.66;;;12.28;57.69
141;BME280;65;48.778;9.160;2023-04-08T14:10:40;98985.47;;;12.51;60.12
141;BME280;65;48.778;9.160;2023-04-08T14:13:26;98988.47;;;12.45;60.37
141;BME280;65;48.778;9.160;2023-04-08T14:16:12;98989.69;;;12.69;59.11
141;BME280;65;48.778;9.160;2023-04-08T14:18:58;98984.94;;;12.90;57.48
141;BME280;65;48.778;9.160;2023-04-08T14:21:44;98982.03;;;13.09;55.53
141;BME280;65;48.778;9.160;2023-04-08T14:24:30;98986.19;;;12.98;56.01
141;BME280;65;48.778;9.160;2023-04-08T14:27:15;98996.44;;;13.05;59.87
141;BME280;65;48.778;9.160;2023-04-08T14:30:01;98986.56;;;12.92;58.12
141;BME280;65;48.778;9.160;2023-04-08T14:32:47;98985.03;;;12.88;56.39
141;BME280;65;48.778;9.160;2023-04-08T14:35:33;98990.41;;;12.73;59.93
141;BME280;65;48.778;9.160;2023-04-08T14:38:19;98992.06;;;12.44;60.71
141;BME280;65;48.778;9.160;2023-04-08T14:41:05;98986.88;;;12.11;63.38
141;BME280;65;48.778;9.160;2023-04-08T14:43:57;98995.88;;;12.08;60.50
141;BME280;65;48.778;9.160;2023-04-08T14:46:43;99006.03;;;11.84;60.45
141;BME280;65;48.778;9.160;2023-04-08T14:49:28;99000.41;;;12.06;59.87
141;BME280;65;48.778;9.160;2023-04-08T14:52:14;98990.66;;;12.07;59.77
141;BME280;65;48.778;9.160;2023-04-08T14:55:00;99003.47;;;11.83;61.52
141;BME280;65;48.778;9.160;2023-04-08T14:57:47;99004.50;;;11.80;61.70
141;BME280;65;48.778;9.160;2023-04-08T15:00:32;99001.34;;;11.89;61.95
141;BME280;65;48.778;9.160;2023-04-08T15:03:18;98996.03;;;12.05;60.04
141;BME280;65;48.778;9.160;2023-04-08T15:06:04;99004.41;;;11.97;60.62
141;BME280;65;48.778;9.160;2023-04-08T15:08:50;99015.50;;;11.72;60.30
141;BME280;65;48.778;9.160;2023-04-08T15:11:36;99013.97;;;11.51;59.80
141;BME280;65;48.778;9.160;2023-04-08T15:14:22;99009.75;;;11.31;63.27
141;BME280;65;48.778;9.160;2023-04-08T15:17:07;99009.75;;;11.31;62.45
141;BME280;65;48.778;9.160;2023-04-08T15:19:54;99014.22;;;11.47;60.15
141;BME280;65;48.778;9.160;2023-04-08T15:22:40;99011.72;;;11.61;59.09
141;BME280;65;48.778;9.160;2023-04-08T15:25:26;99018.53;;;11.32;60.37
141;BME280;65;48.778;9.160;2023-04-08T15:28:11;99022.22;;;11.29;61.13
141;BME280;65;48.778;9.160;2023-04-08T15:30:57;99016.66;;;11.34;62.96
141;BME280;65;48.778;9.160;2023-04-08T15:33:43;99019.44;;;11.48;61.16
141;BME280;65;48.778;9.160;2023-04-08T15:36:29;99027.41;;;11.31;60.75
141;BME280;65;48.778;9.160;2023-04-08T15:39:15;99023.16;;;11.28;61.48
141;BME280;65;48.778;9.160;2023-04-08T15:42:01;99022.16;;;10.96;62.44
141;BME280;65;48.778;9.160;2023-04-08T15:44:47;99026.59;;;10.96;61.84
141;BME280;65;48.778;9.160;2023-04-08T15:47:33;99019.22;;;11.02;61.69
141;BME280;65;48.778;9.160;2023-04-08T15:50:19;99026.06;;;10.89;63.90
141;BME280;65;48.778;9.160;2023-04-08T15:53:05;99027.28;;;10.82;64.74
141;BME280;65;48.778;9.160;2023-04-08T15:55:51;99024.19;;;10.74;65.78
141;BME280;65;48.778;9.160;2023-04-08T15:58:37;99026.38;;;10.66;66.05
141;BME280;65;48.778;9.160;2023-04-08T16:01:22;99028.69;;;10.72;66.60
141;BME280;65;48.778;9.160;2023-04-08T16:04:08;99034.91;;;10.71;66.68
141;BME280;65;48.778;9.160;2023-04-08T16:06:54;99034.84;;;10.72;65.85
141;BME280;65;48.778;9.160;2023-04-08T16:09:40;99036.09;;;10.83;64.31
141;BME280;65;48.778;9.160;2023-04-08T16:12:25;99033.59;;;10.80;64.80